sensor_id;sensor_type;location;lat;lon;timestamp;temperature;humidity
20319;DHT22;10317;47.254;11.314;2022-09-09T00:00:33;13.80;99.90
20319;DHT22;10317;47.254;11.314;2022-09-09T00:03:17;13.70;99.90
20319;DHT22;10317;47.254;11.314;2022-09-09T00:06:04;13.70;99.90
20319;DHT22;10317;47.254;11.314;2022-09-09T00:11:28;13.70;99.90
20319;DHT22;10317;47.254;11.314;2022-09-09T00:14:00;13.70;99.90
20319;DHT22;10317;47.254;11.314;2022-09-09T00:16:32;13.70;99.90
20319;DHT22;10317;47.254;11.314;2022-09-09T00:22:16;13.70;99.90
20319;DHT22;10317;47.254;11.314;2022-09-09T00:24:45;13.70;99.90
20319;DHT22;10317;47.254;11.314;2022-09-09T00:27:46;13.70;99.90
20319;DHT22;10317;47.254;11.314;2022-09-09T00:30:22;13.80;99.90
20319;DHT22;10317;47.254;11.314;2022-09-09T00:32:53;13.80;99.90
20319;DHT22;10317;47.254;11.314;2022-09-09T00:35:34;13.80;99.90
20319;DHT22;10317;47.254;11.314;2022-09-09T00:38:20;13.90;99.90
20319;DHT22;10317;47.254;11.314;2022-09-09T00:41:28;13.90;99.90
20319;DHT22;10317;47.254;11.314;2022-09-09T00:44:36;13.90;99.90
20319;DHT22;10317;47.254;11.314;2022-09-09T00:52:12;13.90;99.90
20319;DHT22;10317;47.254;11.314;2022-09-09T00:57:39;13.90;99.90
20319;DHT22;10317;47.254;11.314;2022-09-09T01:00:31;13.90;99.90
20319;DHT22;10317;47.254;11.314;2022-09-09T01:03:19;13.90;99.90
20319;DHT22;10317;47.254;11.314;2022-09-09T01:06:12;13.90;99.90
20319;DHT22;10317;47.254;11.314;2022-09-09T01:13:56;13.90;99.90
20319;DHT22;10317;47.254;11.314;2022-09-09T01:16:25;13.90;99.90
20319;DHT22;10317;47.254;11.314;2022-09-09T01:18:53;13.90;99.90
20319;DHT22;10317;47.254;11.314;2022-09-09T01:21:33;13.90;99.90
20319;DHT22;10317;47.254;11.314;2022-09-09T01:26:45;14.00;99.90
20319;DHT22;10317;47.254;11.314;2022-09-09T01:29:19;14.00;99.90
20319;DHT22;10317;47.254;11.314;2022-09-09T01:31:56;14.00;99.90
20319;DHT22;10317;47.254;11.314;2022-09-09T01:34:25;14.00;99.90
20319;DHT22;10317;47.254;11.314;2022-09-09T01:37:11;14.00;99.90
20319;DHT22;10317;47.254;11.314;2022-09-09T01:39:40;13.90;99.90
20319;DHT22;10317;47.254;11.314;2022-09-09T01:42:08;14.00;99.90
20319;DHT22;10317;47.254;11.314;2022-09-09T01:44:35;14.00;99.90
20319;DHT22;10317;47.254;11.314;2022-09-09T01:47:01;14.00;99.90
20319;DHT22;10317;47.254;11.314;2022-09-09T01:49:27;14.00;99.90
20319;DHT22;10317;47.254;11.314;2022-09-09T01:51:55;14.00;99.90
20319;DHT22;10317;47.254;11.314;2022-09-09T01:54:23;14.00;99.90
20319;DHT22;10317;47.254;11.314;2022-09-09T02:04:44;13.90;99.90
20319;DHT22;10317;47.254;11.314;2022-09-09T02:07:35;13.90;99.90
20319;DHT22;10317;47.254;11.314;2022-09-09T02:13:06;13.90;99.90
20319;DHT22;10317;47.254;11.314;2022-09-09T02:15:53;13.90;99.90
20319;DHT22;10317;47.254;11.314;2022-09-09T02:18:48;13.90;99.90
20319;DHT22;10317;47.254;11.314;2022-09-09T02:21:17;14.00;99.90
20319;DHT22;10317;47.254;11.314;2022-09-09T02:23:43;13.90;99.90
20319;DHT22;10317;47.254;11.314;2022-09-09T02:26:12;14.00;99.90
20319;DHT22;10317;47.254;11.314;2022-09-09T02:28:45;14.00;99.90
20319;DHT22;10317;47.254;11.314;2022-09-09T02:31:12;14.00;99.90
20319;DHT22;10317;47.254;11.314;2022-09-09T02:33:45;14.00;99.90
20319;DHT22;10317;47.254;11.314;2022-09-09T02:36:12;14.00;99.90
20319;DHT22;10317;47.254;11.314;2022-09-09T02:38:46;13.90;99.90
20319;DHT22;10317;47.254;11.314;2022-09-09T02:41:19;13.90;99.90
20319;DHT22;10317;47.254;11.314;2022-09-09T02:43:47;13.90;99.90
20319;DHT22;10317;47.254;11.314;2022-09-09T02:53:59;13.90;99.90
20319;DHT22;10317;47.254;11.314;2022-09-09T02:56:31;13.90;99.90
20319;DHT22;10317;47.254;11.314;2022-09-09T02:58:59;14.00;99.90
20319;DHT22;10317;47.254;11.314;2022-09-09T03:01:25;14.00;99.90
20319;DHT22;10317;47.254;11.314;2022-09-09T03:03:50;14.00;99.90
20319;DHT22;10317;47.254;11.314;2022-09-09T03:06:16;14.00;99.90
20319;DHT22;10317;47.254;11.314;2022-09-09T03:08:42;14.00;99.90
20319;DHT22;10317;47.254;11.314;2022-09-09T03:11:12;14.00;99.90
20319;DHT22;10317;47.254;11.314;2022-09-09T03:13:39;14.00;99.90
20319;DHT22;10317;47.254;11.314;2022-09-09T03:16:05;14.00;99.90
20319;DHT22;10317;47.254;11.314;2022-09-09T03:18:31;14.10;99.90
20319;DHT22;10317;47.254;11.314;2022-09-09T03:20:57;14.10;99.90
20319;DHT22;10317;47.254;11.314;2022-09-09T03:23:25;14.10;99.90
20319;DHT22;10317;47.254;11.314;2022-09-09T03:25:50;14.10;99.90
20319;DHT22;10317;47.254;11.314;2022-09-09T03:28:17;14.10;99.90
20319;DHT22;10317;47.254;11.314;2022-09-09T03:30:43;14.10;99.90
20319;DHT22;10317;47.254;11.314;2022-09-09T03:33:08;14.10;99.90
20319;DHT22;10317;47.254;11.314;2022-09-09T03:35:34;14.10;99.90
20319;DHT22;10317;47.254;11.314;2022-09-09T03:38:00;14.10;99.90
20319;DHT22;10317;47.254;11.314;2022-09-09T03:40:26;14.10;99.90
20319;DHT22;10317;47.254;11.314;2022-09-09T03:42:52;14.10;99.90
20319;DHT22;10317;47.254;11.314;2022-09-09T03:45:18;14.10;99.90
20319;DHT22;10317;47.254;11.314;2022-09-09T03:47:44;14.20;99.90
20319;DHT22;10317;47.254;11.314;2022-09-09T03:50:10;14.20;99.90
20319;DHT22;10317;47.254;11.314;2022-09-09T03:52:37;14.20;99.90
20319;DHT22;10317;47.254;11.314;2022-09-09T03:55:04;14.20;99.90
20319;DHT22;10317;47.254;11.314;2022-09-09T03:57:31;14.20;99.90
20319;DHT22;10317;47.254;11.314;2022-09-09T03:59:57;14.10;99.90
20319;DHT22;10317;47.254;11.314;2022-09-09T04:02:24;14.20;99.90
20319;DHT22;10317;47.254;11.314;2022-09-09T04:04:50;14.20;99.90
20319;DHT22;10317;47.254;11.314;2022-09-09T04:07:15;14.20;99.90
20319;DHT22;10317;47.254;11.314;2022-09-09T04:09:41;14.10;99.90
20319;DHT22;10317;47.254;11.314;2022-09-09T04:12:07;14.10;99.90
20319;DHT22;10317;47.254;11.314;2022-09-09T04:14:32;14.10;99.90
20319;DHT22;10317;47.254;11.314;2022-09-09T04:16:58;14.20;99.90
20319;DHT22;10317;47.254;11.314;2022-09-09T04:19:25;14.20;99.90
20319;DHT22;10317;47.254;11.314;2022-09-09T04:21:50;14.20;99.90
20319;DHT22;10317;47.254;11.314;2022-09-09T04:24:17;14.20;99.90
20319;DHT22;10317;47.254;11.314;2022-09-09T04:26:43;14.10;99.90
20319;DHT22;10317;47.254;11.314;2022-09-09T04:29:09;14.20;99.90
20319;DHT22;10317;47.254;11.314;2022-09-09T04:31:35;14.10;99.90
20319;DHT22;10317;47.254;11.314;2022-09-09T04:34:01;14.10;99.90
20319;DHT22;10317;47.254;11.314;2022-09-09T04:36:33;14.10;99.90
20319;DHT22;10317;47.254;11.314;2022-09-09T04:39:00;14.10;99.90
20319;DHT22;10317;47.254;11.314;2022-09-09T04:41:26;14.00;99.90
20319;DHT22;10317;47.254;11.314;2022-09-09T04:43:51;14.10;99.90
20319;DHT22;10317;47.254;11.314;2022-09-09T04:46:19;14.10;99.90
20319;DHT22;10317;47.254;11.314;2022-09-09T04:48:45;14.00;99.90
20319;DHT22;10317;47.254;11.314;2022-09-09T04:51:13;14.00;99.90
20319;DHT22;10317;47.254;11.314;2022-09-09T04:53:39;14.00;99.90
20319;DHT22;10317;47.254;11.314;2022-09-09T04:56:08;14.00;99.90
20319;DHT22;10317;47.254;11.314;2022-09-09T04:58:35;14.00;99.90
20319;DHT22;10317;47.254;11.314;2022-09-09T05:01:09;14.00;99.90
20319;DHT22;10317;47.254;11.314;2022-09-09T05:03:35;14.00;99.90
20319;DHT22;10317;47.254;11.314;2022-09-09T05:06:06;14.00;99.90
20319;DHT22;10317;47.254;11.314;2022-09-09T05:08:34;14.00;99.90
20319;DHT22;10317;47.254;11.314;2022-09-09T05:11:00;14.00;99.90
20319;DHT22;10317;47.254;11.314;2022-09-09T05:13:26;14.00;99.90
20319;DHT22;10317;47.254;11.314;2022-09-09T05:15:53;14.00;99.90
20319;DHT22;10317;47.254;11.314;2022-09-09T05:18:19;14.00;99.90
20319;DHT22;10317;47.254;11.314;2022-09-09T05:20:45;13.90;99.90
20319;DHT22;10317;47.254;11.314;2022-09-09T05:23:10;13.90;99.90
20319;DHT22;10317;47.254;11.314;2022-09-09T05:25:39;13.90;99.90
20319;DHT22;10317;47.254;11.314;2022-09-09T05:28:07;13.90;99.90
20319;DHT22;10317;47.254;11.314;2022-09-09T05:30:33;13.90;99.90
20319;DHT22;10317;47.254;11.314;2022-09-09T05:32:59;13.90;99.90
20319;DHT22;10317;47.254;11.314;2022-09-09T05:35:25;13.90;99.90
20319;DHT22;10317;47.254;11.314;2022-09-09T05:37:51;13.90;99.90
20319;DHT22;10317;47.254;11.314;2022-09-09T05:40:16;13.90;99.90
20319;DHT22;10317;47.254;11.314;2022-09-09T05:42:42;13.90;99.90
20319;DHT22;10317;47.254;11.314;2022-09-09T05:45:09;13.90;99.90
20319;DHT22;10317;47.254;11.314;2022-09-09T05:47:35;13.90;99.90
20319;DHT22;10317;47.254;11.314;2022-09-09T05:50:03;13.90;99.90
20319;DHT22;10317;47.254;11.314;2022-09-09T05:52:29;14.00;99.90
20319;DHT22;10317;47.254;11.314;2022-09-09T05:54:54;14.00;99.90
20319;DHT22;10317;47.254;11.314;2022-09-09T05:57:22;14.00;99.90
20319;DHT22;10317;47.254;11.314;2022-09-09T05:59:48;14.00;99.90
20319;DHT22;10317;47.254;11.314;2022-09-09T06:02:16;14.00;99.90
20319;DHT22;10317;47.254;11.314;2022-09-09T06:04:42;14.10;99.90
20319;DHT22;10317;47.254;11.314;2022-09-09T06:07:08;14.10;99.90
20319;DHT22;10317;47.254;11.314;2022-09-09T06:09:33;14.10;99.90
20319;DHT22;10317;47.254;11.314;2022-09-09T06:11:59;14.10;99.90
20319;DHT22;10317;47.254;11.314;2022-09-09T06:14:25;14.20;99.90
20319;DHT22;10317;47.254;11.314;2022-09-09T06:16:53;14.20;99.90
20319;DHT22;10317;47.254;11.314;2022-09-09T06:19:19;14.30;99.90
20319;DHT22;10317;47.254;11.314;2022-09-09T06:21:45;14.30;99.90
20319;DHT22;10317;47.254;11.314;2022-09-09T06:24:13;14.40;99.90
20319;DHT22;10317;47.254;11.314;2022-09-09T06:26:42;14.50;99.90
20319;DHT22;10317;47.254;11.314;2022-09-09T06:29:08;14.50;99.90
20319;DHT22;10317;47.254;11.314;2022-09-09T06:31:35;14.60;99.90
20319;DHT22;10317;47.254;11.314;2022-09-09T06:34:04;14.70;99.90
20319;DHT22;10317;47.254;11.314;2022-09-09T06:36:35;14.70;99.90
20319;DHT22;10317;47.254;11.314;2022-09-09T06:39:02;14.70;99.90
20319;DHT22;10317;47.254;11.314;2022-09-09T06:41:30;14.70;99.90
20319;DHT22;10317;47.254;11.314;2022-09-09T06:43:56;14.70;99.90
20319;DHT22;10317;47.254;11.314;2022-09-09T06:46:30;14.80;99.90
20319;DHT22;10317;47.254;11.314;2022-09-09T06:48:58;14.80;99.90
20319;DHT22;10317;47.254;11.314;2022-09-09T06:51:27;14.80;99.90
20319;DHT22;10317;47.254;11.314;2022-09-09T06:53:55;14.90;99.90
20319;DHT22;10317;47.254;11.314;2022-09-09T06:56:22;14.80;99.90
20319;DHT22;10317;47.254;11.314;2022-09-09T06:58:50;14.90;99.90
20319;DHT22;10317;47.254;11.314;2022-09-09T07:01:25;14.80;99.90
20319;DHT22;10317;47.254;11.314;2022-09-09T07:03:52;14.90;99.90
20319;DHT22;10317;47.254;11.314;2022-09-09T07:06:25;14.90;99.90
20319;DHT22;10317;47.254;11.314;2022-09-09T07:09:02;14.90;99.90
20319;DHT22;10317;47.254;11.314;2022-09-09T07:11:34;14.90;99.90
20319;DHT22;10317;47.254;11.314;2022-09-09T07:14:00;14.90;99.90
20319;DHT22;10317;47.254;11.314;2022-09-09T07:16:26;14.90;99.90
20319;DHT22;10317;47.254;11.314;2022-09-09T07:18:57;14.90;99.90
20319;DHT22;10317;47.254;11.314;2022-09-09T07:21:26;14.80;99.90
20319;DHT22;10317;47.254;11.314;2022-09-09T07:23:53;14.80;99.90
20319;DHT22;10317;47.254;11.314;2022-09-09T07:26:20;14.90;99.90
20319;DHT22;10317;47.254;11.314;2022-09-09T07:28:47;14.90;99.90
20319;DHT22;10317;47.254;11.314;2022-09-09T07:31:15;15.00;99.90
20319;DHT22;10317;47.254;11.314;2022-09-09T07:33:42;15.00;99.90
20319;DHT22;10317;47.254;11.314;2022-09-09T07:36:14;15.10;99.90
20319;DHT22;10317;47.254;11.314;2022-09-09T07:38:48;15.10;99.90
20319;DHT22;10317;47.254;11.314;2022-09-09T07:41:23;15.10;99.90
20319;DHT22;10317;47.254;11.314;2022-09-09T07:43:50;15.10;99.90
20319;DHT22;10317;47.254;11.314;2022-09-09T07:46:18;15.10;99.90
20319;DHT22;10317;47.254;11.314;2022-09-09T07:48:49;15.20;99.90
20319;DHT22;10317;47.254;11.314;2022-09-09T07:51:20;15.20;99.90
20319;DHT22;10317;47.254;11.314;2022-09-09T07:53:51;15.20;99.90
20319;DHT22;10317;47.254;11.314;2022-09-09T07:56:18;15.20;99.90
20319;DHT22;10317;47.254;11.314;2022-09-09T07:58:46;15.20;99.90
20319;DHT22;10317;47.254;11.314;2022-09-09T08:01:19;15.20;99.90
20319;DHT22;10317;47.254;11.314;2022-09-09T08:03:46;15.20;99.90
20319;DHT22;10317;47.254;11.314;2022-09-09T08:06:13;15.20;99.90
20319;DHT22;10317;47.254;11.314;2022-09-09T08:08:40;15.20;99.90
20319;DHT22;10317;47.254;11.314;2022-09-09T08:11:10;15.30;99.90
20319;DHT22;10317;47.254;11.314;2022-09-09T08:13:37;15.30;99.90
20319;DHT22;10317;47.254;11.314;2022-09-09T08:16:05;15.30;99.90
20319;DHT22;10317;47.254;11.314;2022-09-09T08:18:31;15.40;99.90
20319;DHT22;10317;47.254;11.314;2022-09-09T08:20:57;15.30;99.90
20319;DHT22;10317;47.254;11.314;2022-09-09T08:23:22;15.30;99.90
20319;DHT22;10317;47.254;11.314;2022-09-09T08:25:48;15.40;99.90
20319;DHT22;10317;47.254;11.314;2022-09-09T08:28:15;15.50;99.90
20319;DHT22;10317;47.254;11.314;2022-09-09T08:30:41;15.60;99.90
20319;DHT22;10317;47.254;11.314;2022-09-09T08:33:09;15.60;99.90
20319;DHT22;10317;47.254;11.314;2022-09-09T08:35:34;15.70;99.90
20319;DHT22;10317;47.254;11.314;2022-09-09T08:38:00;15.60;99.90
20319;DHT22;10317;47.254;11.314;2022-09-09T08:40:29;15.70;99.90
20319;DHT22;10317;47.254;11.314;2022-09-09T08:43:00;15.70;99.90
20319;DHT22;10317;47.254;11.314;2022-09-09T08:45:50;15.50;99.90
20319;DHT22;10317;47.254;11.314;2022-09-09T08:48:40;15.50;99.90
20319;DHT22;10317;47.254;11.314;2022-09-09T08:51:08;15.50;99.90
20319;DHT22;10317;47.254;11.314;2022-09-09T08:53:47;15.40;99.90
20319;DHT22;10317;47.254;11.314;2022-09-09T08:56:18;15.30;99.90
20319;DHT22;10317;47.254;11.314;2022-09-09T08:58:49;15.30;99.90
20319;DHT22;10317;47.254;11.314;2022-09-09T09:12:35;15.30;99.90
20319;DHT22;10317;47.254;11.314;2022-09-09T09:15:14;15.30;99.90
20319;DHT22;10317;47.254;11.314;2022-09-09T09:17:42;15.40;99.90
20319;DHT22;10317;47.254;11.314;2022-09-09T09:20:14;15.40;99.90
20319;DHT22;10317;47.254;11.314;2022-09-09T09:22:48;15.50;99.90
20319;DHT22;10317;47.254;11.314;2022-09-09T09:25:23;15.60;99.90
20319;DHT22;10317;47.254;11.314;2022-09-09T09:28:16;15.70;99.90
20319;DHT22;10317;47.254;11.314;2022-09-09T09:30:54;15.60;99.90
20319;DHT22;10317;47.254;11.314;2022-09-09T09:35:50;15.70;99.90
20319;DHT22;10317;47.254;11.314;2022-09-09T09:38:26;15.70;99.90
20319;DHT22;10317;47.254;11.314;2022-09-09T09:40:58;15.70;99.90
20319;DHT22;10317;47.254;11.314;2022-09-09T09:43:35;15.60;99.90
20319;DHT22;10317;47.254;11.314;2022-09-09T09:46:05;15.60;99.90
20319;DHT22;10317;47.254;11.314;2022-09-09T09:48:31;15.60;99.90
20319;DHT22;10317;47.254;11.314;2022-09-09T09:51:05;15.60;99.90
20319;DHT22;10317;47.254;11.314;2022-09-09T09:53:34;15.60;99.90
20319;DHT22;10317;47.254;11.314;2022-09-09T09:58:37;15.70;99.90
20319;DHT22;10317;47.254;11.314;2022-09-09T10:01:29;15.80;99.90
20319;DHT22;10317;47.254;11.314;2022-09-09T10:04:02;15.90;99.90
20319;DHT22;10317;47.254;11.314;2022-09-09T10:06:33;16.00;99.90
20319;DHT22;10317;47.254;11.314;2022-09-09T10:09:01;16.10;99.90
20319;DHT22;10317;47.254;11.314;2022-09-09T10:14:23;16.10;99.90
20319;DHT22;10317;47.254;11.314;2022-09-09T10:19:36;16.20;99.90
20319;DHT22;10317;47.254;11.314;2022-09-09T10:22:21;16.20;99.90
20319;DHT22;10317;47.254;11.314;2022-09-09T10:30:23;16.30;99.90
20319;DHT22;10317;47.254;11.314;2022-09-09T10:33:13;16.30;99.90
20319;DHT22;10317;47.254;11.314;2022-09-09T10:38:13;16.40;99.90
20319;DHT22;10317;47.254;11.314;2022-09-09T10:46:10;16.40;99.90
20319;DHT22;10317;47.254;11.314;2022-09-09T10:51:19;16.50;99.90
20319;DHT22;10317;47.254;11.314;2022-09-09T10:53:58;16.40;99.90
20319;DHT22;10317;47.254;11.314;2022-09-09T10:56:31;16.50;99.90
20319;DHT22;10317;47.254;11.314;2022-09-09T10:59:02;16.50;99.90
20319;DHT22;10317;47.254;11.314;2022-09-09T11:01:50;16.50;99.90
20319;DHT22;10317;47.254;11.314;2022-09-09T11:04:27;16.80;99.90
20319;DHT22;10317;47.254;11.314;2022-09-09T11:07:00;16.90;99.90
20319;DHT22;10317;47.254;11.314;2022-09-09T11:09:35;17.00;99.90
20319;DHT22;10317;47.254;11.314;2022-09-09T11:12:02;16.90;99.90
20319;DHT22;10317;47.254;11.314;2022-09-09T11:14:37;17.00;99.90
20319;DHT22;10317;47.254;11.314;2022-09-09T11:17:10;16.90;99.90
20319;DHT22;10317;47.254;11.314;2022-09-09T11:19:43;16.90;99.90
20319;DHT22;10317;47.254;11.314;2022-09-09T11:27:33;17.10;99.90
20319;DHT22;10317;47.254;11.314;2022-09-09T11:38:18;17.20;99.90
20319;DHT22;10317;47.254;11.314;2022-09-09T11:40:45;17.30;99.90
20319;DHT22;10317;47.254;11.314;2022-09-09T11:43:15;17.30;99.90
20319;DHT22;10317;47.254;11.314;2022-09-09T11:45:43;17.40;99.90
20319;DHT22;10317;47.254;11.314;2022-09-09T11:48:31;17.40;99.90
20319;DHT22;10317;47.254;11.314;2022-09-09T11:51:07;17.50;99.90
20319;DHT22;10317;47.254;11.314;2022-09-09T11:56:28;17.50;99.90
20319;DHT22;10317;47.254;11.314;2022-09-09T11:59:06;17.60;99.90
20319;DHT22;10317;47.254;11.314;2022-09-09T12:01:39;17.60;99.90
20319;DHT22;10317;47.254;11.314;2022-09-09T12:10:04;17.90;99.90
20319;DHT22;10317;47.254;11.314;2022-09-09T12:12:37;18.00;99.90
20319;DHT22;10317;47.254;11.314;2022-09-09T12:17:43;18.10;99.90
20319;DHT22;10317;47.254;11.314;2022-09-09T12:20:19;18.10;99.90
20319;DHT22;10317;47.254;11.314;2022-09-09T12:23:01;18.10;99.90
20319;DHT22;10317;47.254;11.314;2022-09-09T12:28:33;18.00;99.90
20319;DHT22;10317;47.254;11.314;2022-09-09T12:33:37;18.10;99.70
20319;DHT22;10317;47.254;11.314;2022-09-09T12:36:04;18.20;99.80
20319;DHT22;10317;47.254;11.314;2022-09-09T12:38:37;18.40;99.10
20319;DHT22;10317;47.254;11.314;2022-09-09T12:41:04;18.40;98.10
20319;DHT22;10317;47.254;11.314;2022-09-09T12:43:30;18.50;99.00
20319;DHT22;10317;47.254;11.314;2022-09-09T12:46:02;18.60;99.20
20319;DHT22;10317;47.254;11.314;2022-09-09T12:48:40;18.80;99.10
20319;DHT22;10317;47.254;11.314;2022-09-09T12:51:24;18.90;97.90
20319;DHT22;10317;47.254;11.314;2022-09-09T12:53:51;18.80;97.20
20319;DHT22;10317;47.254;11.314;2022-09-09T12:56:35;18.60;97.80
20319;DHT22;10317;47.254;11.314;2022-09-09T12:59:01;18.60;99.50
20319;DHT22;10317;47.254;11.314;2022-09-09T13:01:29;18.40;98.90
20319;DHT22;10317;47.254;11.314;2022-09-09T13:03:56;18.30;99.10
20319;DHT22;10317;47.254;11.314;2022-09-09T13:06:27;18.30;99.10
20319;DHT22;10317;47.254;11.314;2022-09-09T13:08:55;18.20;99.00
20319;DHT22;10317;47.254;11.314;2022-09-09T13:11:37;18.10;99.90
20319;DHT22;10317;47.254;11.314;2022-09-09T13:14:05;17.90;99.90
20319;DHT22;10317;47.254;11.314;2022-09-09T13:16:34;17.80;99.90
20319;DHT22;10317;47.254;11.314;2022-09-09T13:19:14;17.90;99.90
20319;DHT22;10317;47.254;11.314;2022-09-09T13:21:41;17.90;99.90
20319;DHT22;10317;47.254;11.314;2022-09-09T13:27:02;17.80;99.90
20319;DHT22;10317;47.254;11.314;2022-09-09T13:29:29;17.70;99.90
20319;DHT22;10317;47.254;11.314;2022-09-09T13:32:15;17.70;99.80
20319;DHT22;10317;47.254;11.314;2022-09-09T13:34:54;17.50;99.90
20319;DHT22;10317;47.254;11.314;2022-09-09T13:37:37;17.40;99.90
20319;DHT22;10317;47.254;11.314;2022-09-09T13:40:13;17.50;99.90
20319;DHT22;10317;47.254;11.314;2022-09-09T13:42:42;17.40;99.90
20319;DHT22;10317;47.254;11.314;2022-09-09T13:45:28;17.50;99.90
20319;DHT22;10317;47.254;11.314;2022-09-09T13:47:54;17.50;99.90
20319;DHT22;10317;47.254;11.314;2022-09-09T13:52:47;17.40;99.90
20319;DHT22;10317;47.254;11.314;2022-09-09T13:55:14;17.30;99.90
20319;DHT22;10317;47.254;11.314;2022-09-09T13:57:53;17.20;99.90
20319;DHT22;10317;47.254;11.314;2022-09-09T14:00:19;17.10;99.90
20319;DHT22;10317;47.254;11.314;2022-09-09T14:02:46;17.00;99.90
20319;DHT22;10317;47.254;11.314;2022-09-09T14:05:12;17.00;99.90
20319;DHT22;10317;47.254;11.314;2022-09-09T14:07:39;17.10;99.90
20319;DHT22;10317;47.254;11.314;2022-09-09T14:10:06;17.00;99.90
20319;DHT22;10317;47.254;11.314;2022-09-09T14:12:32;17.00;99.90
20319;DHT22;10317;47.254;11.314;2022-09-09T14:14:58;17.00;99.90
20319;DHT22;10317;47.254;11.314;2022-09-09T14:17:25;17.00;99.90
20319;DHT22;10317;47.254;11.314;2022-09-09T14:19:54;16.90;99.90
20319;DHT22;10317;47.254;11.314;2022-09-09T14:22:21;16.90;99.90
20319;DHT22;10317;47.254;11.314;2022-09-09T14:24:47;16.90;99.90
20319;DHT22;10317;47.254;11.314;2022-09-09T14:27:13;16.90;99.90
20319;DHT22;10317;47.254;11.314;2022-09-09T14:29:39;16.80;99.90
20319;DHT22;10317;47.254;11.314;2022-09-09T14:32:05;16.70;99.90
20319;DHT22;10317;47.254;11.314;2022-09-09T14:34:30;16.70;99.90
20319;DHT22;10317;47.254;11.314;2022-09-09T14:36:58;16.70;99.90
20319;DHT22;10317;47.254;11.314;2022-09-09T14:39:23;16.70;99.90
20319;DHT22;10317;47.254;11.314;2022-09-09T14:41:49;16.60;99.90
20319;DHT22;10317;47.254;11.314;2022-09-09T14:44:15;16.60;99.90
20319;DHT22;10317;47.254;11.314;2022-09-09T14:46:41;16.40;99.90
20319;DHT22;10317;47.254;11.314;2022-09-09T14:49:07;16.40;99.90
20319;DHT22;10317;47.254;11.314;2022-09-09T14:51:33;16.40;99.90
20319;DHT22;10317;47.254;11.314;2022-09-09T14:53:59;16.50;99.90
20319;DHT22;10317;47.254;11.314;2022-09-09T14:56:28;16.50;99.90
20319;DHT22;10317;47.254;11.314;2022-09-09T14:58:56;16.50;99.90
20319;DHT22;10317;47.254;11.314;2022-09-09T15:01:22;16.60;99.90
20319;DHT22;10317;47.254;11.314;2022-09-09T15:03:53;16.60;99.90
20319;DHT22;10317;47.254;11.314;2022-09-09T15:06:20;16.60;99.90
20319;DHT22;10317;47.254;11.314;2022-09-09T15:08:47;16.70;99.90
20319;DHT22;10317;47.254;11.314;2022-09-09T15:11:14;16.70;99.90
20319;DHT22;10317;47.254;11.314;2022-09-09T15:13:41;16.70;99.90
20319;DHT22;10317;47.254;11.314;2022-09-09T15:16:16;16.70;99.90
20319;DHT22;10317;47.254;11.314;2022-09-09T15:18:43;16.70;99.90
20319;DHT22;10317;47.254;11.314;2022-09-09T15:21:14;16.70;99.90
20319;DHT22;10317;47.254;11.314;2022-09-09T15:23:41;16.70;99.90
20319;DHT22;10317;47.254;11.314;2022-09-09T15:26:07;16.70;99.90
20319;DHT22;10317;47.254;11.314;2022-09-09T15:28:35;16.70;99.90
20319;DHT22;10317;47.254;11.314;2022-09-09T15:31:06;16.70;99.90
20319;DHT22;10317;47.254;11.314;2022-09-09T15:33:33;16.70;99.90
20319;DHT22;10317;47.254;11.314;2022-09-09T15:35:59;16.50;99.90
20319;DHT22;10317;47.254;11.314;2022-09-09T15:38:24;16.50;99.90
20319;DHT22;10317;47.254;11.314;2022-09-09T15:40:54;16.50;99.90
20319;DHT22;10317;47.254;11.314;2022-09-09T15:43:21;16.30;99.90
20319;DHT22;10317;47.254;11.314;2022-09-09T15:45:52;16.40;99.90
20319;DHT22;10317;47.254;11.314;2022-09-09T15:48:27;16.40;99.90
20319;DHT22;10317;47.254;11.314;2022-09-09T15:51:02;16.50;99.90
20319;DHT22;10317;47.254;11.314;2022-09-09T15:53:29;16.40;99.90
20319;DHT22;10317;47.254;11.314;2022-09-09T15:55:55;16.50;99.90
20319;DHT22;10317;47.254;11.314;2022-09-09T15:58:21;16.50;99.90
20319;DHT22;10317;47.254;11.314;2022-09-09T16:00:46;16.50;99.90
20319;DHT22;10317;47.254;11.314;2022-09-09T16:03:13;16.50;99.90
20319;DHT22;10317;47.254;11.314;2022-09-09T16:05:38;16.50;99.90
20319;DHT22;10317;47.254;11.314;2022-09-09T16:08:04;16.40;99.90
20319;DHT22;10317;47.254;11.314;2022-09-09T16:10:30;16.30;99.90
20319;DHT22;10317;47.254;11.314;2022-09-09T16:12:56;16.30;99.90
20319;DHT22;10317;47.254;11.314;2022-09-09T16:15:22;16.40;99.90
20319;DHT22;10317;47.254;11.314;2022-09-09T16:17:48;16.40;99.90
20319;DHT22;10317;47.254;11.314;2022-09-09T16:20:14;16.50;99.90
20319;DHT22;10317;47.254;11.314;2022-09-09T16:22:40;16.70;99.90
20319;DHT22;10317;47.254;11.314;2022-09-09T16:25:07;16.80;99.90
20319;DHT22;10317;47.254;11.314;2022-09-09T16:27:33;16.80;99.90
20319;DHT22;10317;47.254;11.314;2022-09-09T16:29:59;16.80;99.90
20319;DHT22;10317;47.254;11.314;2022-09-09T16:32:25;16.70;99.90
20319;DHT22;10317;47.254;11.314;2022-09-09T16:34:50;16.60;99.90
20319;DHT22;10317;47.254;11.314;2022-09-09T16:37:16;16.50;99.90
20319;DHT22;10317;47.254;11.314;2022-09-09T16:39:43;16.30;99.90
20319;DHT22;10317;47.254;11.314;2022-09-09T16:42:08;16.20;99.90
20319;DHT22;10317;47.254;11.314;2022-09-09T16:44:35;16.10;99.90
20319;DHT22;10317;47.254;11.314;2022-09-09T16:47:01;16.10;99.90
20319;DHT22;10317;47.254;11.314;2022-09-09T16:49:27;16.20;99.90
20319;DHT22;10317;47.254;11.314;2022-09-09T16:51:53;16.20;99.90
20319;DHT22;10317;47.254;11.314;2022-09-09T16:54:19;16.30;99.90
20319;DHT22;10317;47.254;11.314;2022-09-09T16:56:47;16.20;99.90
20319;DHT22;10317;47.254;11.314;2022-09-09T16:59:18;16.10;99.90
20319;DHT22;10317;47.254;11.314;2022-09-09T17:01:45;15.90;99.90
20319;DHT22;10317;47.254;11.314;2022-09-09T17:04:16;15.70;99.90
20319;DHT22;10317;47.254;11.314;2022-09-09T17:06:47;15.60;99.90
20319;DHT22;10317;47.254;11.314;2022-09-09T17:09:14;15.50;99.90
20319;DHT22;10317;47.254;11.314;2022-09-09T17:11:40;15.40;99.90
20319;DHT22;10317;47.254;11.314;2022-09-09T17:14:08;15.40;99.90
20319;DHT22;10317;47.254;11.314;2022-09-09T17:16:35;15.30;99.90
20319;DHT22;10317;47.254;11.314;2022-09-09T17:19:02;15.20;99.90
20319;DHT22;10317;47.254;11.314;2022-09-09T17:21:29;15.10;99.90
20319;DHT22;10317;47.254;11.314;2022-09-09T17:23:56;15.00;99.90
20319;DHT22;10317;47.254;11.314;2022-09-09T17:26:25;15.00;99.90